Ackley, Iowa
Current Conditions -  °F | °C
As of 6:15 AM on Wednesday 28 Jan 2015 (Local Time) from KIFA Reporting Station
Moderate Fog Moderate Fog  
Wind Chill: 17°   Ceiling: 200
Heat Index: 29°   Visibility: 0.5mi
Dew Point: 28°   Wind: 17mph
Humidity: 96%   Direction: 130°SE
Pressure: 30.04"   Gusts: 21mph
Location:  42.55°N, 93.05°W
Report Text: KIFA 281215Z AUTO 13015G18KT 1/2SM FZFG OVC002 M02/M02 A3004 RMK AO2 T10181023
Loading
Personal Weather Stations






























Interactive Weather Map New forecast layout! Learn more

10-Day Weather Forecast

Advertisements
Track Severe Weather on mobile